createdAt,value
2022-10-03T00:00:41.035Z,32.20
2022-10-03T00:02:03.472Z,32.10
2022-10-03T00:03:33.842Z,32.00
2022-10-03T00:05:17.916Z,32.80
2022-10-03T00:06:51.242Z,32.00
2022-10-03T00:08:09.397Z,32.40
2022-10-03T00:09:39.379Z,31.80
2022-10-03T00:11:21.133Z,31.60
2022-10-03T00:12:59.836Z,32.00
2022-10-03T00:14:15.827Z,31.20
2022-10-03T00:15:23.072Z,31.50
2022-10-03T00:16:36.680Z,31.50
2022-10-03T00:17:53.655Z,31.70
2022-10-03T00:19:07.343Z,31.70
2022-10-03T00:20:11.848Z,31.50
2022-10-03T00:21:27.348Z,32.00
2022-10-03T00:22:28.929Z,32.90
2022-10-03T00:23:45.468Z,32.10
2022-10-03T00:25:13.100Z,32.20
2022-10-03T00:26:50.556Z,32.20
2022-10-03T00:28:22.505Z,32.70
2022-10-03T00:29:39.352Z,32.60
2022-10-03T00:30:46.895Z,32.50
2022-10-03T00:32:30.291Z,32.30
2022-10-03T00:33:47.024Z,32.50
2022-10-03T00:35:09.852Z,32.60
2022-10-03T00:36:21.243Z,31.80
2022-10-03T00:37:38.089Z,32.00
2022-10-03T00:38:39.675Z,31.70
2022-10-03T00:39:52.072Z,32.10
2022-10-03T00:41:12.423Z,32.50
2022-10-03T00:42:20.014Z,32.80
2022-10-03T00:43:43.607Z,32.30
2022-10-03T00:44:56.882Z,31.50
2022-10-03T00:46:11.125Z,31.30
2022-10-03T00:47:15.794Z,31.70
2022-10-03T00:48:46.804Z,32.50
2022-10-03T00:50:09.765Z,31.10
2022-10-03T00:51:29.785Z,30.80
2022-10-03T00:52:40.811Z,30.60
2022-10-03T00:53:48.240Z,31.10
2022-10-03T00:55:09.559Z,31.10
2022-10-03T00:56:31.491Z,31.10
2022-10-03T00:58:01.417Z,31.10
2022-10-03T00:59:24.631Z,31.10
2022-10-03T01:00:29.354Z,31.10
2022-10-03T01:01:42.551Z,31.10
2022-10-03T01:02:53.109Z,31.00
2022-10-03T01:04:05.521Z,30.80
2022-10-03T01:05:14.464Z,31.10
2022-10-03T01:06:32.085Z,31.10
2022-10-03T01:07:46.880Z,31.10
2022-10-03T01:09:12.424Z,31.10
2022-10-03T01:10:36.217Z,31.10
2022-10-03T01:11:50.023Z,31.10
2022-10-03T01:13:18.038Z,31.20
2022-10-03T01:14:39.119Z,31.70
2022-10-03T01:15:59.530Z,31.60
2022-10-03T01:17:18.491Z,32.30
2022-10-03T01:18:42.203Z,32.10
2022-10-03T01:19:59.010Z,32.60
2022-10-03T01:21:15.026Z,33.00
2022-10-03T01:22:51.582Z,32.90
2022-10-03T01:24:14.816Z,32.80
2022-10-03T01:25:29.085Z,32.50
2022-10-03T01:26:52.184Z,33.00
2022-10-03T01:28:47.987Z,32.90
2022-10-03T01:30:19.082Z,32.80
2022-10-03T01:31:44.679Z,32.90
2022-10-03T01:33:31.850Z,32.40
2022-10-03T01:35:00.324Z,33.00
2022-10-03T01:36:20.505Z,32.40
2022-10-03T01:37:37.016Z,32.70
2022-10-03T01:39:11.328Z,33.00
2022-10-03T01:40:34.231Z,33.10
2022-10-03T01:41:48.470Z,33.00
2022-10-03T01:43:11.900Z,32.80
2022-10-03T01:44:29.301Z,32.80
2022-10-03T01:45:48.814Z,32.40
2022-10-03T01:47:13.845Z,32.50
2022-10-03T01:48:23.748Z,32.20
2022-10-03T01:49:39.107Z,31.70
2022-10-03T01:50:58.599Z,32.50
2022-10-03T01:52:24.834Z,32.60
2022-10-03T01:53:35.546Z,32.70
2022-10-03T01:54:39.891Z,33.00
2022-10-03T01:56:03.865Z,32.80
2022-10-03T01:57:25.826Z,32.70
2022-10-03T01:58:57.006Z,33.00
2022-10-03T02:00:11.153Z,33.10
2022-10-03T02:01:21.752Z,33.20
2022-10-03T02:02:33.602Z,33.10
2022-10-03T02:03:49.184Z,33.00
2022-10-03T02:04:56.360Z,33.50
2022-10-03T02:06:06.779Z,33.50
2022-10-03T02:07:29.887Z,33.30
2022-10-03T02:08:51.786Z,33.20
2022-10-03T02:10:31.887Z,32.70
2022-10-03T02:11:44.639Z,33.10
2022-10-03T02:12:50.859Z,32.40
2022-10-03T02:14:06.871Z,32.20
2022-10-03T02:15:14.722Z,32.00
2022-10-03T02:16:16.570Z,32.50
2022-10-03T02:17:42.254Z,32.10
2022-10-03T02:19:06.839Z,31.80
2022-10-03T02:20:43.256Z,31.40
2022-10-03T02:21:54.729Z,31.80
2022-10-03T02:22:58.991Z,31.80
2022-10-03T02:24:16.009Z,31.30
2022-10-03T02:25:24.365Z,32.60
2022-10-03T02:26:47.365Z,31.80
2022-10-03T02:28:12.975Z,31.80
2022-10-03T02:29:52.327Z,31.50
2022-10-03T02:31:14.885Z,31.50
2022-10-03T02:32:54.458Z,31.60
2022-10-03T02:34:15.921Z,32.20
2022-10-03T02:35:55.088Z,32.00
2022-10-03T02:37:27.725Z,32.10
2022-10-03T02:38:51.449Z,31.50
2022-10-03T02:40:17.505Z,31.70
2022-10-03T02:41:39.041Z,31.70
2022-10-03T02:43:23.169Z,31.90
2022-10-03T02:45:10.319Z,30.30
2022-10-03T02:46:17.742Z,29.90
2022-10-03T02:47:40.546Z,30.40
2022-10-03T02:49:13.012Z,30.90
2022-10-03T02:50:33.911Z,30.90
2022-10-03T02:52:06.746Z,30.90
2022-10-03T02:53:28.376Z,31.40
2022-10-03T02:54:52.020Z,31.00
2022-10-03T02:56:28.520Z,31.50
2022-10-03T02:57:48.799Z,31.60
2022-10-03T02:59:26.101Z,31.50
2022-10-03T03:01:03.612Z,31.60
2022-10-03T03:02:36.634Z,32.10
2022-10-03T03:04:08.861Z,31.50
2022-10-03T03:05:19.585Z,30.90
2022-10-03T03:06:42.805Z,30.90
2022-10-03T03:08:08.716Z,31.40
2022-10-03T03:09:48.975Z,31.00
2022-10-03T03:11:18.613Z,31.10
2022-10-03T03:12:29.762Z,30.90
2022-10-03T03:13:59.747Z,30.90
2022-10-03T03:15:48.482Z,31.30
2022-10-03T03:17:23.498Z,31.60
2022-10-03T03:18:37.237Z,31.80
2022-10-03T03:20:10.392Z,32.20
2022-10-03T03:21:26.718Z,32.40
2022-10-03T03:22:49.194Z,32.50
2022-10-03T03:23:59.652Z,32.50
2022-10-03T03:25:19.930Z,32.40
2022-10-03T03:27:01.207Z,32.40
2022-10-03T03:28:26.736Z,32.30
2022-10-03T03:29:37.333Z,32.50
2022-10-03T03:31:05.590Z,32.30
2022-10-03T03:32:34.629Z,32.30
2022-10-03T03:34:07.617Z,32.00
2022-10-03T03:35:46.667Z,31.90
2022-10-03T03:37:01.542Z,31.50
2022-10-03T03:38:36.860Z,31.60
2022-10-03T03:39:51.791Z,32.00
2022-10-03T03:41:08.291Z,32.20
2022-10-03T03:42:16.274Z,32.10
2022-10-03T03:43:45.770Z,32.40
2022-10-03T03:45:08.379Z,32.70
2022-10-03T03:46:35.306Z,32.60
2022-10-03T03:48:06.712Z,32.70
2022-10-03T03:49:31.449Z,32.50
2022-10-03T03:50:56.207Z,32.10
2022-10-03T03:52:31.554Z,32.10
2022-10-03T03:54:06.028Z,31.80
2022-10-03T03:55:24.270Z,31.50
2022-10-03T03:56:28.986Z,31.60
2022-10-03T03:57:34.012Z,31.50
2022-10-03T03:58:51.454Z,31.00
2022-10-03T04:00:13.980Z,31.00
2022-10-03T04:01:43.726Z,31.00
2022-10-03T04:03:07.776Z,31.00
2022-10-03T04:04:21.841Z,31.00
2022-10-03T04:05:45.097Z,31.00
2022-10-03T04:07:24.311Z,31.40
2022-10-03T04:09:00.912Z,31.50
2022-10-03T04:10:17.898Z,31.60
2022-10-03T04:11:33.018Z,31.50
2022-10-03T04:12:40.827Z,31.50
2022-10-03T04:14:06.310Z,32.00
2022-10-03T04:15:23.062Z,32.00
2022-10-03T04:17:23.613Z,32.70
2022-10-03T04:18:59.489Z,32.10
2022-10-03T04:20:35.912Z,32.00
2022-10-03T04:21:51.167Z,32.40
2022-10-03T04:23:08.628Z,32.50
2022-10-03T04:24:36.309Z,32.70
2022-10-03T04:25:54.886Z,32.70
2022-10-03T04:26:59.665Z,32.80
2022-10-03T04:28:38.745Z,33.00
2022-10-03T04:29:56.913Z,33.20
2022-10-03T04:30:59.758Z,32.70
2022-10-03T04:32:11.131Z,32.50
2022-10-03T04:33:31.685Z,32.40
2022-10-03T04:35:04.567Z,32.30
2022-10-03T04:36:15.188Z,32.30
2022-10-03T04:37:35.858Z,32.60
2022-10-03T04:38:44.348Z,32.60
2022-10-03T04:40:18.240Z,32.40
2022-10-03T04:41:30.078Z,32.50
2022-10-03T04:42:58.434Z,32.80
2022-10-03T04:44:26.703Z,32.50
2022-10-03T04:45:46.158Z,32.30
2022-10-03T04:47:06.634Z,32.50
2022-10-03T04:48:35.932Z,32.50
2022-10-03T04:49:53.027Z,33.10
2022-10-03T04:51:19.696Z,33.40
2022-10-03T04:52:59.230Z,33.20
2022-10-03T04:54:28.453Z,33.40
2022-10-03T04:55:42.063Z,32.70
2022-10-03T04:56:48.395Z,32.40
2022-10-03T04:58:05.511Z,32.40
2022-10-03T04:59:22.383Z,32.30
2022-10-03T05:00:28.289Z,32.20
2022-10-03T05:01:32.796Z,32.30
2022-10-03T05:02:58.018Z,32.40
2022-10-03T05:04:26.638Z,32.20
2022-10-03T05:05:35.001Z,31.90
2022-10-03T05:07:16.491Z,32.20
2022-10-03T05:08:18.114Z,32.30
2022-10-03T05:09:49.653Z,32.90
2022-10-03T05:11:07.348Z,32.20
2022-10-03T05:12:48.337Z,32.40
2022-10-03T05:14:03.819Z,31.90
2022-10-03T05:15:15.459Z,31.90
2022-10-03T05:16:20.337Z,31.80
2022-10-03T05:17:37.289Z,31.10
2022-10-03T05:18:45.571Z,31.00
2022-10-03T05:20:05.112Z,30.80
2022-10-03T05:21:20.202Z,31.20
2022-10-03T05:22:40.506Z,30.80
2022-10-03T05:24:03.045Z,30.40
2022-10-03T05:25:13.730Z,30.20
2022-10-03T05:26:44.660Z,30.70
2022-10-03T05:28:12.375Z,30.50
2022-10-03T05:29:42.337Z,30.20
2022-10-03T05:31:16.548Z,30.00
2022-10-03T05:32:18.177Z,30.80
2022-10-03T05:33:33.967Z,30.20
2022-10-03T05:34:59.661Z,30.00
2022-10-03T05:36:18.691Z,30.00
2022-10-03T05:37:48.241Z,30.20
2022-10-03T05:39:18.979Z,30.20
2022-10-03T05:40:24.035Z,30.10
2022-10-03T05:41:35.623Z,30.00
2022-10-03T05:42:49.352Z,30.00
2022-10-03T05:44:02.666Z,30.30
2022-10-03T05:45:23.468Z,30.70
2022-10-03T05:46:43.947Z,30.10
2022-10-03T05:48:09.057Z,30.50
2022-10-03T05:49:16.712Z,30.00
2022-10-03T05:50:30.670Z,30.00
2022-10-03T05:51:42.662Z,30.30
2022-10-03T05:53:06.917Z,30.10
2022-10-03T05:55:01.754Z,29.90
2022-10-03T05:56:09.208Z,29.90
2022-10-03T05:58:00.226Z,29.90
2022-10-03T05:59:36.233Z,30.70
2022-10-03T06:01:08.352Z,29.80
2022-10-03T06:02:37.502Z,29.70
2022-10-03T06:03:48.455Z,29.60
2022-10-03T06:05:11.359Z,29.50
2022-10-03T06:06:21.128Z,28.70
2022-10-03T06:07:56.849Z,28.80
2022-10-03T06:09:07.358Z,29.00
2022-10-03T06:10:39.519Z,28.70
2022-10-03T06:12:05.931Z,28.60
2022-10-03T06:13:41.046Z,28.80
2022-10-03T06:14:54.899Z,28.80
2022-10-03T06:15:59.248Z,29.00
2022-10-03T06:17:27.034Z,28.60
2022-10-03T06:18:53.956Z,28.10
2022-10-03T06:20:25.799Z,28.00
2022-10-03T06:21:42.952Z,28.20
2022-10-03T06:23:19.674Z,28.50
2022-10-03T06:24:56.394Z,28.60
2022-10-03T06:26:19.251Z,27.70
2022-10-03T06:27:40.773Z,28.00
2022-10-03T06:29:27.139Z,27.80
2022-10-03T06:30:38.028Z,28.00
2022-10-03T06:32:00.420Z,26.90
2022-10-03T06:33:27.023Z,27.40
2022-10-03T06:34:31.514Z,27.70
2022-10-03T06:36:11.571Z,27.70
2022-10-03T06:37:39.050Z,27.00
2022-10-03T06:39:08.458Z,26.40
2022-10-03T06:40:43.922Z,25.80
2022-10-03T06:42:23.079Z,26.90
2022-10-03T06:43:43.789Z,26.00
2022-10-03T06:45:15.569Z,26.20
2022-10-03T06:46:47.839Z,26.10
2022-10-03T06:48:01.327Z,25.90
2022-10-03T06:49:21.811Z,26.60
2022-10-03T06:50:23.484Z,26.90
2022-10-03T06:52:03.424Z,26.90
2022-10-03T06:53:24.025Z,27.00
2022-10-03T06:54:34.690Z,26.90
2022-10-03T06:56:01.218Z,26.50
2022-10-03T06:57:13.573Z,25.10
2022-10-03T06:58:38.596Z,25.10
2022-10-03T06:59:59.912Z,25.90
2022-10-03T07:01:33.852Z,25.80
2022-10-03T07:06:14.858Z,26.90
2022-10-03T07:07:41.075Z,26.90
2022-10-03T07:09:01.792Z,26.30
2022-10-03T07:10:29.965Z,26.20
2022-10-03T07:12:05.414Z,25.90
2022-10-03T07:13:22.494Z,26.00
2022-10-03T07:14:51.562Z,25.30
2022-10-03T07:16:28.198Z,26.10
2022-10-03T07:17:39.246Z,25.90
2022-10-03T07:19:02.440Z,25.70
2022-10-03T07:20:06.846Z,25.60
2022-10-03T07:21:26.824Z,24.90
2022-10-03T07:23:21.581Z,25.10
2022-10-03T07:24:45.126Z,25.40
2022-10-03T07:26:08.434Z,25.10
2022-10-03T07:27:34.002Z,24.60
2022-10-03T07:29:00.127Z,24.90
2022-10-03T07:30:09.637Z,25.10
2022-10-03T07:31:27.392Z,24.70
2022-10-03T07:32:32.576Z,24.10
2022-10-03T07:33:52.985Z,24.20
2022-10-03T07:35:15.485Z,23.80
2022-10-03T07:37:05.591Z,23.50
2022-10-03T07:38:58.036Z,23.50
2022-10-03T07:40:12.808Z,23.50
2022-10-03T07:41:51.784Z,24.20
2022-10-03T07:43:19.767Z,23.90
2022-10-03T07:44:42.770Z,23.50
2022-10-03T07:46:23.054Z,23.50
2022-10-03T07:48:00.079Z,23.20
2022-10-03T07:49:18.757Z,22.60
2022-10-03T07:50:32.466Z,22.30
2022-10-03T07:52:12.548Z,21.80
2022-10-03T07:53:55.426Z,21.70
2022-10-03T07:55:42.646Z,22.20
2022-10-03T07:57:12.466Z,22.10
2022-10-03T07:58:26.295Z,22.70
2022-10-03T08:00:02.483Z,23.40
2022-10-03T08:01:07.337Z,23.70
2022-10-03T08:02:21.174Z,22.90
2022-10-03T08:03:41.810Z,23.10
2022-10-03T08:05:22.659Z,22.20
2022-10-03T08:06:37.987Z,21.10
2022-10-03T08:08:14.019Z,21.10
2022-10-03T08:09:56.274Z,21.60
2022-10-03T08:11:09.871Z,20.50
2022-10-03T08:12:29.357Z,18.80
2022-10-03T08:13:52.624Z,18.60
2022-10-03T08:14:58.395Z,18.40
2022-10-03T08:16:27.623Z,19.10
2022-10-03T08:18:20.867Z,18.90
2022-10-03T08:19:43.735Z,17.10
2022-10-03T08:20:55.400Z,18.00
2022-10-03T08:22:15.077Z,18.40
2022-10-03T08:23:52.358Z,19.20
2022-10-03T08:25:22.139Z,18.40
2022-10-03T08:26:44.515Z,19.90
2022-10-03T08:27:48.848Z,20.10
2022-10-03T08:29:00.575Z,19.00
2022-10-03T08:30:23.782Z,19.20
2022-10-03T08:31:30.814Z,19.30
2022-10-03T08:32:58.911Z,18.90
2022-10-03T08:34:18.922Z,18.50
2022-10-03T08:35:32.065Z,18.70
2022-10-03T08:36:42.601Z,19.00
2022-10-03T08:38:17.694Z,18.90
2022-10-03T08:39:45.830Z,18.60
2022-10-03T08:41:24.367Z,17.70
2022-10-03T08:42:46.779Z,17.20
2022-10-03T08:44:38.743Z,17.70
2022-10-03T08:45:45.384Z,18.90
2022-10-03T08:47:29.864Z,18.60
2022-10-03T08:49:00.732Z,17.40
2022-10-03T08:50:33.232Z,17.10
2022-10-03T08:51:55.983Z,16.80
2022-10-03T08:53:28.683Z,17.00
2022-10-03T08:54:52.361Z,17.50
2022-10-03T08:56:17.431Z,17.10
2022-10-03T08:57:30.616Z,17.40
2022-10-03T08:58:53.856Z,17.60
2022-10-03T09:00:19.862Z,16.60
2022-10-03T09:01:40.062Z,16.40
2022-10-03T09:03:43.028Z,16.40
2022-10-03T09:04:57.189Z,16.00
2022-10-03T09:06:27.001Z,16.00
2022-10-03T09:07:44.547Z,15.70
2022-10-03T09:09:17.122Z,15.10
2022-10-03T09:10:51.972Z,15.50
2022-10-03T09:12:09.030Z,15.40
2022-10-03T09:13:37.001Z,15.90
2022-10-03T09:15:03.713Z,15.90
2022-10-03T09:16:26.686Z,15.80
2022-10-03T09:17:46.912Z,15.60
2022-10-03T09:19:28.019Z,16.20
2022-10-03T09:20:41.726Z,17.00
2022-10-03T09:22:19.587Z,16.70
2022-10-03T09:23:55.457Z,16.30
2022-10-03T09:25:19.823Z,15.10
2022-10-03T09:26:57.780Z,14.10
2022-10-03T09:28:26.280Z,14.80
2022-10-03T09:29:40.103Z,14.20
2022-10-03T09:31:03.989Z,13.80
2022-10-03T09:32:47.388Z,14.30
2022-10-03T09:34:00.757Z,12.00
2022-10-03T09:35:32.728Z,12.10
2022-10-03T09:37:01.428Z,12.10
2022-10-03T09:38:27.171Z,13.00
2022-10-03T09:40:02.525Z,14.30
2022-10-03T09:41:31.289Z,9.00
2022-10-03T09:43:03.729Z,7.80
2022-10-03T09:44:45.554Z,8.20
2022-10-03T09:46:21.526Z,7.50
2022-10-03T09:47:49.014Z,8.00
2022-10-03T09:49:27.344Z,9.10
2022-10-03T09:51:06.381Z,9.60
2022-10-03T09:52:48.193Z,8.90
2022-10-03T09:54:30.709Z,8.10
2022-10-03T09:56:05.039Z,6.10
2022-10-03T09:57:44.527Z,7.00
2022-10-03T09:59:17.382Z,6.50
2022-10-03T10:00:25.647Z,7.40
2022-10-03T10:01:41.634Z,7.60
2022-10-03T10:03:05.609Z,7.10
2022-10-03T10:04:50.256Z,6.10
2022-10-03T10:06:10.189Z,6.40
2022-10-03T10:07:30.727Z,5.30
2022-10-03T10:09:18.557Z,6.10
2022-10-03T10:10:29.380Z,5.30
2022-10-03T10:12:03.876Z,4.00
2022-10-03T10:14:03.224Z,2.70
2022-10-03T10:15:23.109Z,4.90
2022-10-03T10:16:33.702Z,5.20
2022-10-03T10:17:56.514Z,2.90
2022-10-03T10:19:34.298Z,3.20
2022-10-03T10:21:12.702Z,3.80
2022-10-03T10:23:01.101Z,1.90
2022-10-03T10:24:34.032Z,1.40
2022-10-03T10:25:47.577Z,1.00
2022-10-03T10:27:14.014Z,1.50
2022-10-03T10:28:48.412Z,1.00
2022-10-03T10:29:50.493Z,1.00
2022-10-03T10:31:14.212Z,1.00
2022-10-03T10:32:43.797Z,1.30
2022-10-03T10:34:04.359Z,1.40
2022-10-03T10:35:44.576Z,1.70
2022-10-03T10:37:21.225Z,2.00
2022-10-03T10:38:43.894Z,2.20
2022-10-03T10:40:00.769Z,2.80
2022-10-03T10:41:29.836Z,2.90
2022-10-03T10:42:34.665Z,3.00
2022-10-03T10:43:48.325Z,3.60
2022-10-03T10:45:24.616Z,3.80
2022-10-03T10:46:41.404Z,4.40
2022-10-03T10:48:14.850Z,5.00
2022-10-03T10:50:00.893Z,4.00
2022-10-03T10:51:07.066Z,3.50
2022-10-03T10:52:14.873Z,5.20
2022-10-03T10:53:56.208Z,5.50
2022-10-03T10:55:03.757Z,4.70
2022-10-03T10:56:36.792Z,4.90
2022-10-03T10:57:57.178Z,4.80
2022-10-03T10:59:26.982Z,4.00
2022-10-03T11:01:06.103Z,5.20
2022-10-03T11:02:35.814Z,5.40
2022-10-03T11:04:00.555Z,5.80
2022-10-03T11:05:30.762Z,5.30
2022-10-03T11:06:52.480Z,4.20
2022-10-03T11:08:32.083Z,5.20
2022-10-03T11:09:55.099Z,5.90
2022-10-03T11:11:35.211Z,5.90
2022-10-03T11:12:56.448Z,4.50
2022-10-03T11:13:58.211Z,5.80
2022-10-03T11:15:37.862Z,5.60
2022-10-03T11:17:01.314Z,4.70
2022-10-03T11:18:08.939Z,4.90
2022-10-03T11:19:45.853Z,4.70
2022-10-03T11:21:12.367Z,4.30
2022-10-03T11:22:49.283Z,4.40
2022-10-03T11:24:36.775Z,4.60
2022-10-03T11:25:40.456Z,3.70
2022-10-03T11:27:19.678Z,4.40
2022-10-03T11:28:29.121Z,3.30
2022-10-03T11:30:03.058Z,3.20
2022-10-03T11:31:04.720Z,2.30
2022-10-03T11:32:09.763Z,3.60
2022-10-03T11:33:32.977Z,3.60
2022-10-03T11:34:40.150Z,2.30
2022-10-03T11:36:12.314Z,1.00
2022-10-03T11:37:32.664Z,1.00
2022-10-03T11:39:09.252Z,1.00
2022-10-03T11:40:34.666Z,1.00
2022-10-03T11:41:53.730Z,1.00
2022-10-03T11:43:22.929Z,1.00
2022-10-03T11:44:34.098Z,1.00
2022-10-03T11:46:11.075Z,1.00
2022-10-03T11:47:37.839Z,1.00
2022-10-03T11:48:44.551Z,1.00
2022-10-03T11:50:16.304Z,1.00
2022-10-03T11:51:36.071Z,1.00
2022-10-03T11:52:47.101Z,1.00
2022-10-03T11:54:29.454Z,1.00
2022-10-03T11:55:51.390Z,1.00
2022-10-03T11:57:18.100Z,1.00
2022-10-03T11:58:41.408Z,1.00
2022-10-03T12:00:20.148Z,1.00
2022-10-03T12:01:39.891Z,1.00
2022-10-03T12:03:17.214Z,1.00
2022-10-03T12:04:46.863Z,1.00
2022-10-03T12:06:20.090Z,1.00
2022-10-03T12:08:03.875Z,1.00
2022-10-03T12:09:17.876Z,1.00
2022-10-03T12:10:57.823Z,1.00
2022-10-03T12:12:36.624Z,1.00
2022-10-03T12:13:46.513Z,1.00
2022-10-03T12:14:51.761Z,1.00
2022-10-03T12:15:58.952Z,1.00
2022-10-03T12:17:17.373Z,1.00
2022-10-03T12:18:43.020Z,1.00
2022-10-03T12:20:06.138Z,1.00
2022-10-03T12:21:28.041Z,1.00
2022-10-03T12:22:32.648Z,1.00
2022-10-03T12:23:51.999Z,1.00
2022-10-03T12:25:16.437Z,1.00
2022-10-03T12:26:28.895Z,1.00
2022-10-03T12:28:21.752Z,1.00
2022-10-03T12:29:26.425Z,1.00
2022-10-03T12:30:40.867Z,1.00
2022-10-03T12:31:46.590Z,1.00
2022-10-03T12:33:07.049Z,1.00
2022-10-03T12:34:29.715Z,1.00
2022-10-03T12:36:17.694Z,1.00
2022-10-03T12:37:33.369Z,1.00
2022-10-03T12:38:35.116Z,1.00
2022-10-03T12:40:00.811Z,1.00
2022-10-03T12:41:11.730Z,1.00
2022-10-03T12:42:31.045Z,1.00
2022-10-03T12:43:53.578Z,1.00
2022-10-03T12:45:04.314Z,1.00
2022-10-03T12:46:18.957Z,1.00
2022-10-03T12:47:44.015Z,1.00
2022-10-03T12:49:06.345Z,1.00
2022-10-03T12:50:14.262Z,1.00
2022-10-03T12:51:38.044Z,1.00
2022-10-03T12:53:23.805Z,1.00
2022-10-03T12:54:36.101Z,1.00
2022-10-03T12:55:42.381Z,1.00
2022-10-03T12:57:02.358Z,1.00
2022-10-03T12:58:06.807Z,1.00
2022-10-03T12:59:33.466Z,1.00
2022-10-03T13:01:10.063Z,1.00
2022-10-03T13:02:26.196Z,1.00
2022-10-03T13:03:51.616Z,1.00
2022-10-03T13:05:30.744Z,1.00
2022-10-03T13:07:03.459Z,1.00
2022-10-03T13:08:43.520Z,1.00
2022-10-03T13:10:10.068Z,1.00
2022-10-03T13:11:46.746Z,1.00
2022-10-03T13:12:56.740Z,1.00
2022-10-03T13:14:17.162Z,1.00
2022-10-03T13:15:18.810Z,1.00
2022-10-03T13:16:31.823Z,1.00
2022-10-03T13:18:07.240Z,1.00
2022-10-03T13:19:17.749Z,1.00
2022-10-03T13:20:32.534Z,1.00
2022-10-03T13:21:56.096Z,1.00
2022-10-03T13:23:04.061Z,1.00
2022-10-03T13:24:34.657Z,1.00
2022-10-03T13:25:42.403Z,1.00
2022-10-03T13:26:53.874Z,1.00
2022-10-03T13:28:10.842Z,1.00
2022-10-03T13:29:18.127Z,1.00
2022-10-03T13:30:28.941Z,1.00
2022-10-03T13:31:33.863Z,1.00
2022-10-03T13:32:39.333Z,1.00
2022-10-03T13:33:51.525Z,1.00
2022-10-03T13:35:33.216Z,1.00
2022-10-03T13:36:38.391Z,1.00
2022-10-03T13:38:16.574Z,1.00
2022-10-03T13:39:42.453Z,1.00
2022-10-03T13:41:03.513Z,1.00
2022-10-03T13:42:39.429Z,1.00
2022-10-03T13:43:50.221Z,1.00
2022-10-03T13:44:57.793Z,1.00
2022-10-03T13:46:01.172Z,1.00
2022-10-03T13:47:40.219Z,1.00
2022-10-03T13:48:52.435Z,1.00
2022-10-03T13:50:06.105Z,1.00
2022-10-03T13:51:36.501Z,1.00
2022-10-03T13:53:09.382Z,1.00
2022-10-03T13:54:26.011Z,1.00
2022-10-03T13:55:44.944Z,1.00
2022-10-03T13:56:57.857Z,1.00
2022-10-03T13:58:33.663Z,1.00
2022-10-03T13:59:55.331Z,1.00
2022-10-03T14:01:36.966Z,1.00
2022-10-03T14:02:44.829Z,1.00
2022-10-03T14:04:14.894Z,1.00
2022-10-03T14:05:31.535Z,1.00
2022-10-03T14:06:53.805Z,1.00
2022-10-03T14:08:13.606Z,1.00
2022-10-03T14:09:49.180Z,1.00
2022-10-03T14:10:56.892Z,1.00
2022-10-03T14:12:01.733Z,1.00
2022-10-03T14:13:19.737Z,1.00
2022-10-03T14:14:34.181Z,1.00
2022-10-03T14:15:53.955Z,1.00
2022-10-03T14:17:00.660Z,1.00
2022-10-03T14:18:33.974Z,1.00
2022-10-03T14:20:10.741Z,1.00
2022-10-03T14:21:40.729Z,1.00
2022-10-03T14:23:07.497Z,1.00
2022-10-03T14:24:36.940Z,1.00
2022-10-03T14:26:18.217Z,1.00
2022-10-03T14:28:02.015Z,1.00
2022-10-03T14:29:24.732Z,1.00
2022-10-03T14:31:05.480Z,1.00
2022-10-03T14:32:48.332Z,1.00
2022-10-03T14:34:02.890Z,1.00
2022-10-03T14:35:38.739Z,1.00
2022-10-03T14:37:09.470Z,1.00
2022-10-03T14:38:54.970Z,1.00
2022-10-03T14:40:02.517Z,1.00
2022-10-03T14:41:09.186Z,1.00
2022-10-03T14:42:22.880Z,1.00
2022-10-03T14:43:24.511Z,1.00
2022-10-03T14:44:40.139Z,1.00
2022-10-03T14:45:49.542Z,1.00
2022-10-03T14:47:01.640Z,1.00
2022-10-03T14:48:12.600Z,1.00
2022-10-03T14:49:52.361Z,1.00
2022-10-03T14:50:54.698Z,1.00
2022-10-03T14:52:03.070Z,1.00
2022-10-03T14:53:20.281Z,1.00
2022-10-03T14:54:27.408Z,1.00
2022-10-03T14:56:03.741Z,1.00
2022-10-03T14:57:52.951Z,1.00
2022-10-03T14:59:02.685Z,1.00
2022-10-03T15:00:08.432Z,1.00
2022-10-03T15:01:18.981Z,1.00
2022-10-03T15:02:38.217Z,1.00
2022-10-03T15:04:18.624Z,1.00
2022-10-03T15:05:59.179Z,1.00
2022-10-03T15:07:02.793Z,1.00
2022-10-03T15:08:16.115Z,1.00
2022-10-03T15:09:34.074Z,1.00
2022-10-03T15:10:36.853Z,1.00
2022-10-03T15:11:59.493Z,1.00
2022-10-03T15:13:09.779Z,1.00
2022-10-03T15:14:12.060Z,1.00
2022-10-03T15:15:23.462Z,1.00
2022-10-03T15:16:26.802Z,1.00
2022-10-03T15:17:32.179Z,1.00
2022-10-03T15:18:34.459Z,1.00
2022-10-03T15:20:04.124Z,1.00
2022-10-03T15:21:10.880Z,1.00
2022-10-03T15:22:21.286Z,1.00
2022-10-03T15:23:26.369Z,1.00
2022-10-03T15:24:35.025Z,1.00
2022-10-03T15:25:41.830Z,1.00
2022-10-03T15:26:47.410Z,1.00
2022-10-03T15:27:52.424Z,1.00
2022-10-03T15:28:59.424Z,1.00
2022-10-03T15:30:05.312Z,1.00
2022-10-03T15:31:15.395Z,1.00
2022-10-03T15:32:27.640Z,1.00
2022-10-03T15:33:32.881Z,1.00
2022-10-03T15:34:40.869Z,1.00
2022-10-03T15:35:46.961Z,1.00
2022-10-03T15:36:58.178Z,1.00
2022-10-03T15:38:13.648Z,1.00
2022-10-03T15:39:48.712Z,1.00
2022-10-03T15:41:21.457Z,1.00
2022-10-03T15:42:28.935Z,1.00
2022-10-03T15:43:35.828Z,1.00
2022-10-03T15:44:50.190Z,1.00
2022-10-03T15:45:53.414Z,1.00
2022-10-03T15:47:01.863Z,1.00
2022-10-03T15:48:11.554Z,1.00
2022-10-03T15:49:19.902Z,1.00
2022-10-03T15:50:33.492Z,1.00
2022-10-03T15:51:38.643Z,1.00
2022-10-03T15:52:52.891Z,1.00
2022-10-03T15:53:58.447Z,1.00
2022-10-03T15:55:11.826Z,1.00
2022-10-03T15:56:23.999Z,1.00
2022-10-03T15:57:30.361Z,1.00
2022-10-03T15:58:37.993Z,1.00
2022-10-03T15:59:45.356Z,1.00
2022-10-03T16:01:05.547Z,1.00
2022-10-03T16:02:18.963Z,1.00
2022-10-03T16:03:44.289Z,1.00
2022-10-03T16:04:46.947Z,1.00
2022-10-03T16:05:55.902Z,1.00
2022-10-03T16:07:03.538Z,1.00
2022-10-03T16:08:11.609Z,1.00
2022-10-03T16:09:48.568Z,1.00
2022-10-03T16:11:13.881Z,1.00
2022-10-03T16:12:55.182Z,1.00
2022-10-03T16:14:20.906Z,1.00
2022-10-03T16:15:53.397Z,1.00
2022-10-03T16:16:59.956Z,1.00
2022-10-03T16:18:06.623Z,1.00
2022-10-03T16:19:33.621Z,1.00
2022-10-03T16:20:41.454Z,1.00
2022-10-03T16:21:46.650Z,1.00
2022-10-03T16:22:57.193Z,1.00
2022-10-03T16:24:02.192Z,1.00
2022-10-03T16:25:25.554Z,1.00
2022-10-03T16:26:31.698Z,1.00
2022-10-03T16:27:38.653Z,1.00
2022-10-03T16:28:42.186Z,1.00
2022-10-03T16:30:04.543Z,1.00
2022-10-03T16:31:11.499Z,1.00
2022-10-03T16:32:29.660Z,1.00
2022-10-03T16:33:35.489Z,1.00
2022-10-03T16:34:43.397Z,1.00
2022-10-03T16:35:50.017Z,1.00
2022-10-03T16:36:52.201Z,1.00
2022-10-03T16:37:55.023Z,1.00
2022-10-03T16:38:59.981Z,1.00
2022-10-03T16:40:07.370Z,1.00
2022-10-03T16:41:25.621Z,1.00
2022-10-03T16:42:39.648Z,1.00
2022-10-03T16:43:42.101Z,1.00
2022-10-03T16:44:46.526Z,1.00
2022-10-03T16:45:49.066Z,1.00
2022-10-03T16:46:54.269Z,1.00
2022-10-03T16:48:18.670Z,1.00
2022-10-03T16:49:53.636Z,1.00
2022-10-03T16:50:56.447Z,1.00
2022-10-03T16:52:09.873Z,1.00
2022-10-03T16:53:12.617Z,1.00
2022-10-03T16:54:18.116Z,1.00
2022-10-03T16:55:37.249Z,1.00
2022-10-03T16:56:47.325Z,1.00
2022-10-03T16:58:28.246Z,1.00
2022-10-03T16:59:32.655Z,1.00
2022-10-03T17:01:25.426Z,1.00
2022-10-03T17:02:27.495Z,1.00
2022-10-03T17:03:36.937Z,1.00
2022-10-03T17:04:48.723Z,1.00
2022-10-03T17:05:57.724Z,1.00
2022-10-03T17:07:05.935Z,1.00
2022-10-03T17:08:36.795Z,1.00
2022-10-03T17:09:46.452Z,1.00
2022-10-03T17:10:57.960Z,1.00
2022-10-03T17:12:01.663Z,1.00
2022-10-03T17:13:14.254Z,1.00
2022-10-03T17:14:19.159Z,1.00
2022-10-03T17:15:24.088Z,1.00
2022-10-03T17:16:52.187Z,1.00
2022-10-03T17:18:00.017Z,1.00
2022-10-03T17:19:08.809Z,1.00
2022-10-03T17:20:19.576Z,1.00
2022-10-03T17:21:27.773Z,1.00
2022-10-03T17:22:38.403Z,1.00
2022-10-03T17:23:47.289Z,1.00
2022-10-03T17:25:07.144Z,1.00
2022-10-03T17:26:32.892Z,1.00
2022-10-03T17:27:40.582Z,1.00
2022-10-03T17:29:09.122Z,1.00
2022-10-03T17:30:22.775Z,1.00
2022-10-03T17:31:48.069Z,1.00
2022-10-03T17:32:57.070Z,1.00
2022-10-03T17:34:22.580Z,1.00
2022-10-03T17:35:37.848Z,1.00
2022-10-03T17:36:54.959Z,1.00
2022-10-03T17:38:37.144Z,1.00
2022-10-03T17:39:37.351Z,1.00
2022-10-03T17:40:48.477Z,1.00
2022-10-03T17:41:54.588Z,1.00
2022-10-03T17:43:01.938Z,1.00
2022-10-03T17:44:25.451Z,1.00
2022-10-03T17:45:44.850Z,1.00
2022-10-03T17:47:11.517Z,1.00
2022-10-03T17:48:46.345Z,1.00
2022-10-03T17:50:06.178Z,1.00